createdAt,value
2019-03-31T00:00:22.811Z,10.8
2019-03-31T00:01:21.670Z,10.8
2019-03-31T00:02:20.857Z,10.8
2019-03-31T00:05:18.391Z,10.9
2019-03-31T00:05:49.071Z,10.9
2019-03-31T00:07:16.626Z,10.8
2019-03-31T00:08:16.012Z,10.8
2019-03-31T00:09:14.781Z,10.8
2019-03-31T00:10:14.162Z,10.8
2019-03-31T00:11:13.430Z,10.8
2019-03-31T00:12:12.200Z,10.8
2019-03-31T00:15:09.848Z,10.7
2019-03-31T00:15:40.533Z,10.7
2019-03-31T00:17:08.224Z,10.7
2019-03-31T00:20:05.863Z,10.7
2019-03-31T00:21:04.639Z,10.6
2019-03-31T00:22:03.813Z,10.6
2019-03-31T00:23:03.093Z,10.6
2019-03-31T00:24:02.173Z,10.5
2019-03-31T00:26:00.426Z,10.5
2019-03-31T00:26:30.813Z,10.5
2019-03-31T00:27:01.414Z,10.5
2019-03-31T00:27:58.680Z,10.5
2019-03-31T00:28:58.076Z,10.5
2019-03-31T00:29:56.937Z,10.4
2019-03-31T00:31:55.595Z,10.4
2019-03-31T00:32:54.460Z,10.5
2019-03-31T00:33:53.826Z,10.5
2019-03-31T00:37:50.258Z,10.4
2019-03-31T00:38:49.201Z,10.5
2019-03-31T00:39:48.468Z,10.5
2019-03-31T00:40:47.852Z,10.5
2019-03-31T00:41:18.432Z,10.5
2019-03-31T00:41:49.117Z,10.5
2019-03-31T00:42:45.971Z,10.5
2019-03-31T00:43:44.745Z,10.5
2019-03-31T00:44:44.034Z,10.4
2019-03-31T00:45:43.425Z,10.4
2019-03-31T00:46:13.929Z,10.4
2019-03-31T00:46:44.678Z,10.4
2019-03-31T00:47:41.529Z,10.4
2019-03-31T00:49:39.779Z,10.3
2019-03-31T00:52:37.420Z,10.3
2019-03-31T00:54:35.564Z,10.2
2019-03-31T00:55:34.733Z,10.2
2019-03-31T00:56:34.105Z,10.2
2019-03-31T00:57:32.935Z,10.1
2019-03-31T00:58:32.308Z,10.1
2019-03-31T01:00:30.362Z,10.1
2019-03-31T01:01:01.048Z,10.1
2019-03-31T01:01:38.182Z,10
2019-03-31T01:02:02.226Z,10
2019-03-31T01:03:27.784Z,10.1
2019-03-31T01:05:26.035Z,10.1
2019-03-31T01:08:23.673Z,10.1
2019-03-31T01:09:22.546Z,10.2
2019-03-31T01:10:21.911Z,10.2
2019-03-31T01:11:20.787Z,10.2
2019-03-31T01:11:51.465Z,10.2
2019-03-31T01:12:21.951Z,10.3
2019-03-31T01:12:52.538Z,10.3
2019-03-31T01:14:18.281Z,10.3
2019-03-31T01:15:17.550Z,10.3
2019-03-31T01:16:16.945Z,10.3
2019-03-31T01:17:19.861Z,10.3
2019-03-31T01:18:15.298Z,10.3
2019-03-31T01:20:13.464Z,10.2
2019-03-31T01:21:12.340Z,10.2
2019-03-31T01:21:42.920Z,10.2
2019-03-31T01:22:13.507Z,10.2
2019-03-31T01:22:44.158Z,10.2
2019-03-31T01:23:14.378Z,10.2
2019-03-31T01:23:44.761Z,10.2
2019-03-31T01:25:08.696Z,10.2
2019-03-31T01:26:07.958Z,10.1
2019-03-31T01:27:07.233Z,10.2
2019-03-31T01:28:06.506Z,10.1
2019-03-31T01:29:05.171Z,10.1
2019-03-31T01:31:03.923Z,10.1
2019-03-31T01:31:34.603Z,10.1
2019-03-31T01:32:05.203Z,10.1
2019-03-31T01:32:35.786Z,10.1
2019-03-31T01:33:06.343Z,10.1
2019-03-31T01:33:36.936Z,10.1
2019-03-31T01:34:07.413Z,10.1
2019-03-31T01:34:38.000Z,10.1
2019-03-31T01:35:59.506Z,10.1
2019-03-31T01:36:58.185Z,10.1
2019-03-31T01:40:55.213Z,10.1
2019-03-31T01:41:25.788Z,10.1
2019-03-31T01:41:56.374Z,10.1
2019-03-31T01:42:27.050Z,10.1
2019-03-31T01:43:52.579Z,10.1
2019-03-31T01:44:23.260Z,10.1
2019-03-31T01:44:53.955Z,10.1
2019-03-31T01:45:24.629Z,10.1
2019-03-31T01:46:50.067Z,10.1
2019-03-31T01:48:48.319Z,10.1
2019-03-31T01:50:46.573Z,10.1
2019-03-31T01:51:17.156Z,10.1
2019-03-31T01:51:47.732Z,10.2
2019-03-31T01:52:18.373Z,10.2
2019-03-31T01:52:49.067Z,10.2
2019-03-31T01:53:19.809Z,10.2
2019-03-31T01:53:49.988Z,10.1
2019-03-31T01:54:20.668Z,10.1
2019-03-31T01:54:51.345Z,10.1
2019-03-31T01:55:22.019Z,10.1
2019-03-31T01:56:45.064Z,10.1
2019-03-31T01:57:40.424Z,10
2019-03-31T01:58:39.611Z,10
2019-03-31T02:00:37.863Z,10
2019-03-31T02:01:37.310Z,10
2019-03-31T02:02:07.298Z,10
2019-03-31T02:02:37.884Z,9.9
2019-03-31T02:03:08.467Z,9.9
2019-03-31T02:03:39.062Z,9.9
2019-03-31T02:04:09.739Z,9.9
2019-03-31T02:05:33.602Z,9.8
2019-03-31T02:06:04.289Z,9.8
2019-03-31T02:07:31.731Z,9.8
2019-03-31T02:08:30.994Z,9.7
2019-03-31T02:10:29.241Z,9.7
2019-03-31T02:11:28.518Z,9.7
2019-03-31T02:12:27.382Z,9.7
2019-03-31T02:12:57.865Z,9.7
2019-03-31T02:13:28.444Z,9.7
2019-03-31T02:13:59.128Z,9.7
2019-03-31T02:14:29.812Z,9.6
2019-03-31T02:15:00.610Z,9.6
2019-03-31T02:16:24.133Z,9.6
2019-03-31T02:17:22.961Z,9.6
2019-03-31T02:18:22.238Z,9.6
2019-03-31T02:19:21.508Z,9.5
2019-03-31T02:20:20.281Z,9.5
2019-03-31T02:21:19.549Z,9.5
2019-03-31T02:22:19.005Z,9.5
2019-03-31T02:23:17.783Z,9.5
2019-03-31T02:23:48.496Z,9.5
2019-03-31T02:24:18.581Z,9.5
2019-03-31T02:24:49.162Z,9.5
2019-03-31T02:26:15.195Z,9.4
2019-03-31T02:27:14.461Z,9.4
2019-03-31T02:28:13.827Z,9.4
2019-03-31T02:29:12.692Z,9.4
2019-03-31T02:30:11.983Z,9.4
2019-03-31T02:31:10.876Z,9.4
2019-03-31T02:32:25.997Z,9.4
2019-03-31T02:33:09.239Z,9.3
2019-03-31T02:34:08.620Z,9.3
2019-03-31T02:34:39.336Z,9.3
2019-03-31T02:35:09.521Z,9.3
2019-03-31T02:35:40.242Z,9.3
2019-03-31T02:36:10.433Z,9.2
2019-03-31T02:36:41.130Z,9.2
2019-03-31T02:38:05.012Z,9.2
2019-03-31T02:39:04.212Z,9.2
2019-03-31T02:40:03.165Z,9.2
2019-03-31T02:41:02.455Z,9.1
2019-03-31T02:42:01.344Z,9.1
2019-03-31T02:43:00.752Z,9.1
2019-03-31T02:43:59.632Z,9.1
2019-03-31T02:44:30.313Z,9.1
2019-03-31T02:45:01.521Z,9
2019-03-31T02:45:31.209Z,9
2019-03-31T02:47:56.135Z,9
2019-03-31T02:48:55.599Z,9
2019-03-31T02:49:54.314Z,8.9
2019-03-31T02:50:53.795Z,8.9
2019-03-31T02:51:52.704Z,8.9
2019-03-31T02:52:52.101Z,8.9
2019-03-31T02:53:50.986Z,8.9
2019-03-31T02:54:50.299Z,8.9
2019-03-31T02:55:20.394Z,8.9
2019-03-31T02:55:50.903Z,8.9
2019-03-31T02:56:48.218Z,8.9
2019-03-31T02:57:47.612Z,8.9
2019-03-31T02:58:46.537Z,8.9
2019-03-31T02:59:45.950Z,8.9
2019-03-31T03:00:44.898Z,8.9
2019-03-31T03:01:43.781Z,8.9
2019-03-31T03:02:43.957Z,8.9
2019-03-31T03:03:42.360Z,8.9
2019-03-31T03:04:41.320Z,8.8
2019-03-31T03:05:40.243Z,8.8
2019-03-31T03:06:39.654Z,8.8
2019-03-31T03:07:38.551Z,8.8
2019-03-31T03:09:36.964Z,8.9
2019-03-31T03:10:35.858Z,8.8
2019-03-31T03:11:05.968Z,8.8
2019-03-31T03:11:36.777Z,8.8
2019-03-31T03:12:34.567Z,8.8
2019-03-31T03:13:33.472Z,8.8
2019-03-31T03:14:32.255Z,8.8
2019-03-31T03:15:31.643Z,8.8
2019-03-31T03:16:31.038Z,8.8
2019-03-31T03:17:29.939Z,8.8
2019-03-31T03:18:28.838Z,8.8
2019-03-31T03:19:28.231Z,8.8
2019-03-31T03:20:27.109Z,8.8
2019-03-31T03:20:57.841Z,8.8
2019-03-31T03:21:28.081Z,8.8
2019-03-31T03:21:58.222Z,8.8
2019-03-31T03:22:28.947Z,8.8
2019-03-31T03:22:59.050Z,8.8
2019-03-31T03:23:29.478Z,8.8
2019-03-31T03:24:23.833Z,8.8
2019-03-31T03:25:22.745Z,8.8
2019-03-31T03:26:22.064Z,8.9
2019-03-31T03:27:20.917Z,8.9
2019-03-31T03:28:20.213Z,8.9
2019-03-31T03:29:19.133Z,8.8
2019-03-31T03:30:19.644Z,8.9
2019-03-31T03:30:50.297Z,8.9
2019-03-31T03:31:20.598Z,8.9
2019-03-31T03:31:51.165Z,8.9
2019-03-31T03:32:20.975Z,8.9
2019-03-31T03:33:20.556Z,8.9
2019-03-31T03:33:22.753Z,8.9
2019-03-31T03:33:53.165Z,8.9
2019-03-31T03:34:23.637Z,8.8
2019-03-31T03:35:14.045Z,8.8
2019-03-31T03:36:12.940Z,8.8
2019-03-31T03:37:12.339Z,8.8
2019-03-31T03:38:11.153Z,8.8
2019-03-31T03:39:10.575Z,8.8
2019-03-31T03:40:09.462Z,8.8
2019-03-31T03:40:39.678Z,8.8
2019-03-31T03:41:09.966Z,8.9
2019-03-31T03:41:40.167Z,8.9
2019-03-31T03:42:10.784Z,8.9
2019-03-31T03:42:40.998Z,8.9
2019-03-31T03:43:11.004Z,8.8
2019-03-31T03:44:03.567Z,8.8
2019-03-31T03:45:05.051Z,8.8
2019-03-31T03:46:04.501Z,8.8
2019-03-31T03:47:03.426Z,8.8
2019-03-31T03:48:02.363Z,8.8
2019-03-31T03:50:01.162Z,8.8
2019-03-31T03:50:30.780Z,8.8
2019-03-31T03:51:01.493Z,8.8
2019-03-31T03:51:31.697Z,8.8
2019-03-31T03:52:01.834Z,8.8
2019-03-31T03:52:32.565Z,8.8
2019-03-31T03:53:02.902Z,8.8
2019-03-31T03:53:33.118Z,8.8
2019-03-31T03:54:56.162Z,8.7
2019-03-31T03:55:55.371Z,8.7
2019-03-31T03:56:54.771Z,8.7
2019-03-31T03:57:53.669Z,8.7
2019-03-31T03:58:52.557Z,8.7
2019-03-31T03:59:52.026Z,8.7
2019-03-31T04:00:22.271Z,8.7
2019-03-31T04:00:52.485Z,8.7
2019-03-31T04:01:23.203Z,8.7
2019-03-31T04:01:53.310Z,8.7
2019-03-31T04:02:23.945Z,8.7
2019-03-31T04:02:54.781Z,8.6
2019-03-31T04:03:32.122Z,8.6
2019-03-31T04:03:55.381Z,8.6
2019-03-31T04:04:25.509Z,8.6
2019-03-31T04:05:46.545Z,8.6
2019-03-31T04:06:45.833Z,8.6
2019-03-31T04:07:44.741Z,8.6
2019-03-31T04:08:44.138Z,8.6
2019-03-31T04:09:43.078Z,8.5
2019-03-31T04:10:13.283Z,8.5
2019-03-31T04:10:43.521Z,8.5
2019-03-31T04:11:13.628Z,8.5
2019-03-31T04:11:44.348Z,8.5
2019-03-31T04:12:14.531Z,8.5
2019-03-31T04:12:45.248Z,8.5
2019-03-31T04:13:15.615Z,8.5
2019-03-31T04:13:45.896Z,8.5
2019-03-31T04:14:15.989Z,8.5
2019-03-31T04:15:37.545Z,8.5
2019-03-31T04:16:36.951Z,8.5
2019-03-31T04:18:35.219Z,8.5
2019-03-31T04:19:34.129Z,8.4
2019-03-31T04:20:33.035Z,8.4
2019-03-31T04:21:03.098Z,8.4
2019-03-31T04:21:33.800Z,8.4
2019-03-31T04:22:03.945Z,8.4
2019-03-31T04:22:34.659Z,8.4
2019-03-31T04:23:04.878Z,8.4
2019-03-31T04:23:35.001Z,8.4
2019-03-31T04:24:05.627Z,8.4
2019-03-31T04:25:28.675Z,8.4
2019-03-31T04:26:28.030Z,8.4
2019-03-31T04:27:26.882Z,8.4
2019-03-31T04:29:25.206Z,8.4
2019-03-31T04:31:23.519Z,8.4
2019-03-31T04:31:53.678Z,8.4
2019-03-31T04:32:24.409Z,8.4
2019-03-31T04:32:54.618Z,8.4
2019-03-31T04:33:24.742Z,8.4
2019-03-31T04:33:55.357Z,8.4
2019-03-31T04:34:25.789Z,8.4
2019-03-31T04:34:56.130Z,8.4
2019-03-31T04:37:18.079Z,8.4
2019-03-31T04:38:17.478Z,8.4
2019-03-31T04:39:16.271Z,8.4
2019-03-31T04:40:15.698Z,8.4
2019-03-31T04:41:14.604Z,8.3
2019-03-31T04:42:13.478Z,8.3
2019-03-31T04:42:44.082Z,8.3
2019-03-31T04:43:14.815Z,8.3
2019-03-31T04:43:45.008Z,8.3
2019-03-31T04:44:15.696Z,8.3
2019-03-31T04:44:46.404Z,8.3
2019-03-31T04:46:09.946Z,8.3
2019-03-31T04:47:09.326Z,8.3
2019-03-31T04:48:08.230Z,8.2
2019-03-31T04:49:07.640Z,8.2
2019-03-31T04:50:06.320Z,8.2
2019-03-31T04:51:05.568Z,8.2
2019-03-31T04:52:04.862Z,8.2
2019-03-31T04:53:03.639Z,8.2
2019-03-31T04:53:34.330Z,8.2
2019-03-31T04:54:05.022Z,8.2
2019-03-31T04:54:35.724Z,8.2
2019-03-31T04:55:06.324Z,8.2
2019-03-31T04:55:36.915Z,8.2
2019-03-31T04:56:07.498Z,8.2
2019-03-31T04:57:00.346Z,8.2
2019-03-31T04:57:59.181Z,8.1
2019-03-31T04:58:58.557Z,8.1
2019-03-31T04:59:57.424Z,8.1
2019-03-31T05:00:56.727Z,8.1
2019-03-31T05:01:55.608Z,8.1
2019-03-31T05:02:54.999Z,8.1
2019-03-31T05:04:06.504Z,8.1
2019-03-31T05:04:24.216Z,8.1
2019-03-31T05:04:54.318Z,8.1
2019-03-31T05:05:52.191Z,8.1
2019-03-31T05:06:51.063Z,8.1
2019-03-31T05:07:50.351Z,8
2019-03-31T05:09:48.505Z,8.1
2019-03-31T05:10:47.883Z,8.1
2019-03-31T05:11:46.759Z,8.1
2019-03-31T05:12:45.946Z,8
2019-03-31T05:13:44.822Z,8.1
2019-03-31T05:14:44.094Z,8.1
2019-03-31T05:15:42.856Z,8.1
2019-03-31T05:16:42.233Z,8.1
2019-03-31T05:17:41.680Z,8.1
2019-03-31T05:18:40.558Z,8.1
2019-03-31T05:19:39.474Z,8.1
2019-03-31T05:20:09.659Z,8.1
2019-03-31T05:21:37.715Z,8.1
2019-03-31T05:22:37.166Z,8.1
2019-03-31T05:23:35.946Z,8.2
2019-03-31T05:24:35.316Z,8.2
2019-03-31T05:25:34.188Z,8.2
2019-03-31T05:27:32.447Z,8.2
2019-03-31T05:28:31.226Z,8.2
2019-03-31T05:29:30.499Z,8.2
2019-03-31T05:30:01.389Z,8.2
2019-03-31T05:32:27.763Z,8.2
2019-03-31T05:33:27.143Z,8.2
2019-03-31T05:34:25.842Z,8.2
2019-03-31T05:35:28.328Z,8.3
2019-03-31T05:37:23.569Z,8.3
2019-03-31T05:38:22.444Z,8.3
2019-03-31T05:39:21.815Z,8.3
2019-03-31T05:39:52.413Z,8.3
2019-03-31T05:40:23.029Z,8.3
2019-03-31T05:40:53.716Z,8.3
2019-03-31T05:42:18.680Z,8.4
2019-03-31T05:43:17.892Z,8.4
2019-03-31T05:44:17.177Z,8.4
2019-03-31T05:45:15.950Z,8.4
2019-03-31T05:46:15.244Z,8.5
2019-03-31T05:48:13.504Z,8.5
2019-03-31T05:49:12.789Z,8.5
2019-03-31T05:49:43.371Z,8.5
2019-03-31T05:50:14.049Z,8.6
2019-03-31T05:50:44.651Z,8.6
2019-03-31T05:51:15.309Z,8.6
2019-03-31T05:51:46.002Z,8.6
2019-03-31T05:53:08.830Z,8.6
2019-03-31T05:54:08.110Z,8.6
2019-03-31T05:58:04.645Z,8.8
2019-03-31T05:59:03.420Z,8.8
2019-03-31T05:59:34.102Z,8.8
2019-03-31T06:00:04.790Z,8.8
2019-03-31T06:00:35.398Z,8.8
2019-03-31T06:01:06.091Z,8.8
2019-03-31T06:01:36.696Z,8.8
2019-03-31T06:02:06.778Z,8.8
2019-03-31T06:02:37.366Z,8.8
2019-03-31T06:03:59.395Z,8.9
2019-03-31T06:04:58.259Z,8.9
2019-03-31T06:07:55.719Z,9
2019-03-31T06:10:52.858Z,9
2019-03-31T06:11:23.452Z,9
2019-03-31T06:12:51.016Z,9
2019-03-31T06:13:21.707Z,9
2019-03-31T06:13:52.380Z,9
2019-03-31T06:14:49.549Z,9.1
2019-03-31T06:15:48.418Z,9.1
2019-03-31T06:18:46.058Z,9.1
2019-03-31T06:19:16.739Z,9.1
2019-03-31T06:19:47.134Z,9.1
2019-03-31T06:20:17.817Z,9.1
2019-03-31T06:20:48.312Z,9.1
2019-03-31T06:21:18.998Z,9.1
2019-03-31T06:21:49.589Z,9.1
2019-03-31T06:22:20.185Z,9.1
2019-03-31T06:22:50.907Z,9.1
2019-03-31T06:23:20.990Z,9.1
2019-03-31T06:24:40.508Z,9.1
2019-03-31T06:25:39.876Z,9.1
2019-03-31T06:26:38.562Z,9.1
2019-03-31T06:27:37.930Z,9.1
2019-03-31T06:28:36.801Z,9.1
2019-03-31T06:29:36.085Z,9.1
2019-03-31T06:30:06.684Z,9.1
2019-03-31T06:30:36.903Z,9.1
2019-03-31T06:31:07.593Z,9.1
2019-03-31T06:31:38.278Z,9.1
2019-03-31T06:32:08.982Z,9.1
2019-03-31T06:34:31.809Z,9.1
2019-03-31T06:35:30.583Z,9.1
2019-03-31T06:36:29.965Z,9.2
2019-03-31T06:37:28.879Z,9.1
2019-03-31T06:38:28.159Z,9.2
2019-03-31T06:40:26.217Z,9.1
2019-03-31T06:40:56.921Z,9.1
2019-03-31T06:41:27.114Z,9.2
2019-03-31T06:41:57.864Z,9.2
2019-03-31T06:42:27.859Z,9.2
2019-03-31T06:42:58.348Z,9.2
2019-03-31T06:45:21.567Z,9.2
2019-03-31T06:46:20.936Z,9.2
2019-03-31T06:48:19.186Z,9.3
2019-03-31T06:49:18.467Z,9.3
2019-03-31T06:50:17.143Z,9.3
2019-03-31T06:50:47.728Z,9.3
2019-03-31T06:51:18.510Z,9.3
2019-03-31T06:51:48.588Z,9.3
2019-03-31T06:52:19.179Z,9.3
2019-03-31T06:52:49.864Z,9.3
2019-03-31T06:54:13.899Z,9.3
2019-03-31T06:55:13.076Z,9.4
2019-03-31T06:56:12.356Z,9.4
2019-03-31T06:58:10.528Z,9.4
2019-03-31T07:00:08.883Z,9.4
2019-03-31T07:01:07.671Z,9.4
2019-03-31T07:01:38.375Z,9.4
2019-03-31T07:02:08.574Z,9.4
2019-03-31T07:02:39.270Z,9.4
2019-03-31T07:04:05.227Z,9.4
2019-03-31T07:05:04.502Z,9.4
2019-03-31T07:06:03.280Z,9.4
2019-03-31T07:08:01.532Z,9.3
2019-03-31T07:09:00.802Z,9.3
2019-03-31T07:10:00.276Z,9.3
2019-03-31T07:10:59.334Z,9.3
2019-03-31T07:11:58.101Z,9.3
2019-03-31T07:12:28.784Z,9.3
2019-03-31T07:13:00.954Z,9.3
2019-03-31T07:13:29.940Z,9.3
2019-03-31T07:14:00.537Z,9.3
2019-03-31T07:14:55.679Z,9.3
2019-03-31T07:15:54.537Z,9.2
2019-03-31T07:16:53.722Z,9.2
2019-03-31T07:17:52.902Z,9.2
2019-03-31T07:18:52.181Z,9.2
2019-03-31T07:19:51.055Z,9.1
2019-03-31T07:20:50.333Z,9.1
2019-03-31T07:21:49.702Z,9.1
2019-03-31T07:22:48.474Z,9
2019-03-31T07:23:19.063Z,9
2019-03-31T07:23:49.761Z,9
2019-03-31T07:26:45.193Z,8.9
2019-03-31T07:27:44.483Z,8.9
2019-03-31T07:28:15.171Z,8.9
2019-03-31T07:28:45.855Z,8.9
2019-03-31T07:29:16.545Z,8.9
2019-03-31T07:30:41.591Z,8.9
2019-03-31T07:32:39.755Z,8.9
2019-03-31T07:33:39.145Z,8.9
2019-03-31T07:34:37.918Z,9
2019-03-31T07:35:40.244Z,9
2019-03-31T07:36:36.601Z,9
2019-03-31T07:38:41.354Z,9
2019-03-31T07:39:06.923Z,9
2019-03-31T07:39:37.220Z,9
2019-03-31T07:40:07.472Z,9
2019-03-31T07:40:37.574Z,9
2019-03-31T07:41:33.138Z,9
2019-03-31T07:42:32.171Z,9
2019-03-31T07:43:30.541Z,9
2019-03-31T07:44:29.555Z,9
2019-03-31T07:45:28.471Z,9
2019-03-31T07:46:27.748Z,8.9
2019-03-31T07:47:26.524Z,8.8
2019-03-31T07:47:57.208Z,8.8
2019-03-31T07:49:25.171Z,8.8
2019-03-31T07:49:55.596Z,8.8
2019-03-31T07:50:29.553Z,8.8
2019-03-31T07:50:56.724Z,8.8
2019-03-31T07:51:27.410Z,8.8
2019-03-31T07:52:22.147Z,8.7
2019-03-31T07:53:21.427Z,8.8
2019-03-31T07:54:20.804Z,8.7
2019-03-31T07:55:19.578Z,8.8
2019-03-31T07:56:18.672Z,8.7
2019-03-31T07:57:18.070Z,8.7
2019-03-31T07:58:17.207Z,8.7
2019-03-31T07:58:47.455Z,8.7
2019-03-31T07:59:17.685Z,8.8
2019-03-31T07:59:47.927Z,8.8
2019-03-31T08:00:18.028Z,8.8
2019-03-31T08:00:48.639Z,8.8
2019-03-31T08:01:19.125Z,8.8
2019-03-31T08:01:49.713Z,8.8
2019-03-31T08:02:20.395Z,8.7
2019-03-31T08:03:12.647Z,8.8
2019-03-31T08:04:12.026Z,8.8
2019-03-31T08:05:10.898Z,8.8
2019-03-31T08:06:10.193Z,8.7
2019-03-31T08:07:09.067Z,8.7
2019-03-31T08:08:08.339Z,8.7
2019-03-31T08:08:39.027Z,8.7
2019-03-31T08:09:09.702Z,8.6
2019-03-31T08:09:40.196Z,8.6
2019-03-31T08:10:10.884Z,8.6
2019-03-31T08:10:41.473Z,8.6
2019-03-31T08:12:04.812Z,8.6
2019-03-31T08:13:04.211Z,8.6
2019-03-31T08:14:02.992Z,8.6
2019-03-31T08:15:02.378Z,8.6
2019-03-31T08:16:01.330Z,8.6
2019-03-31T08:17:00.614Z,8.7
2019-03-31T08:17:59.492Z,8.6
2019-03-31T08:18:30.095Z,8.6
2019-03-31T08:19:00.784Z,8.6
2019-03-31T08:19:31.377Z,8.6
2019-03-31T08:20:01.901Z,8.6
2019-03-31T08:20:32.587Z,8.6
2019-03-31T08:21:03.177Z,8.6
2019-03-31T08:21:33.662Z,8.6
2019-03-31T08:22:58.482Z,8.6
2019-03-31T08:23:54.232Z,8.6
2019-03-31T08:24:53.505Z,8.6
2019-03-31T08:25:52.371Z,8.5
2019-03-31T08:26:51.652Z,8.6
2019-03-31T08:27:51.033Z,8.6
2019-03-31T08:28:22.232Z,8.6
2019-03-31T08:28:51.936Z,8.6
2019-03-31T08:29:22.046Z,8.6
2019-03-31T08:30:02.406Z,8.6
2019-03-31T08:30:22.771Z,8.6
2019-03-31T08:30:53.473Z,8.6
2019-03-31T08:31:24.173Z,8.6
2019-03-31T08:31:54.933Z,8.7
2019-03-31T08:32:28.995Z,8.7
2019-03-31T08:33:45.486Z,8.7
2019-03-31T08:34:44.765Z,8.7
2019-03-31T08:35:48.839Z,8.7
2019-03-31T08:37:41.875Z,8.7
2019-03-31T08:38:12.561Z,8.7
2019-03-31T08:38:43.181Z,8.7
2019-03-31T08:39:13.765Z,8.7
2019-03-31T08:39:44.451Z,8.7
2019-03-31T08:40:15.142Z,8.7
2019-03-31T08:40:45.831Z,8.7
2019-03-31T08:41:16.527Z,8.7
2019-03-31T08:41:47.216Z,8.7
2019-03-31T08:42:17.923Z,8.7
2019-03-31T08:43:36.933Z,8.8
2019-03-31T08:44:35.814Z,8.8
2019-03-31T08:45:35.009Z,8.8
2019-03-31T08:46:33.871Z,8.8
2019-03-31T08:47:33.146Z,8.8
2019-03-31T08:48:32.333Z,8.8
2019-03-31T08:49:03.030Z,8.8
2019-03-31T08:49:33.619Z,8.7
2019-03-31T08:50:04.313Z,8.7
2019-03-31T08:50:36.236Z,8.7
2019-03-31T08:51:05.423Z,8.7
2019-03-31T08:51:36.015Z,8.7
2019-03-31T08:52:06.709Z,8.7
2019-03-31T08:53:27.724Z,8.8
2019-03-31T08:54:27.104Z,8.8
2019-03-31T08:55:25.874Z,8.8
2019-03-31T08:56:25.253Z,8.7
2019-03-31T08:57:24.539Z,8.8
2019-03-31T08:59:22.699Z,8.7
2019-03-31T08:59:53.289Z,8.7
2019-03-31T09:00:23.984Z,8.7
2019-03-31T09:00:54.582Z,8.7
2019-03-31T09:02:20.132Z,8.7
2019-03-31T09:02:50.780Z,8.7
2019-03-31T09:03:21.488Z,8.7
2019-03-31T09:05:17.226Z,8.8
2019-03-31T09:06:16.618Z,8.8
2019-03-31T09:07:15.481Z,8.8
2019-03-31T09:08:14.655Z,8.9
2019-03-31T09:09:14.119Z,8.9
2019-03-31T09:10:12.994Z,8.9
2019-03-31T09:10:43.171Z,8.9
2019-03-31T09:11:13.853Z,8.8
2019-03-31T09:11:44.451Z,8.8
2019-03-31T09:14:09.287Z,8.8
2019-03-31T09:15:08.653Z,8.8
2019-03-31T09:17:06.922Z,8.8
2019-03-31T09:18:05.610Z,8.9
2019-03-31T09:20:04.371Z,8.9
2019-03-31T09:21:03.257Z,9
2019-03-31T09:21:33.258Z,9
2019-03-31T09:22:03.952Z,9
2019-03-31T09:22:34.697Z,9
2019-03-31T09:23:05.291Z,9
2019-03-31T09:24:00.633Z,9.1
2019-03-31T09:24:59.912Z,9.1
2019-03-31T09:25:58.792Z,9.1
2019-03-31T09:26:58.082Z,8.9
2019-03-31T09:32:52.769Z,9.1
2019-03-31T09:33:52.084Z,9
2019-03-31T09:34:50.880Z,9
2019-03-31T09:35:50.157Z,8.9
2019-03-31T09:37:48.319Z,9.1
2019-03-31T09:38:49.777Z,9.1
2019-03-31T09:46:40.831Z,9
2019-03-31T09:47:11.522Z,9
2019-03-31T09:47:42.129Z,9
2019-03-31T09:48:12.727Z,9
2019-03-31T09:50:36.990Z,9
2019-03-31T09:51:36.369Z,9.1
2019-03-31T09:52:35.249Z,9.1
2019-03-31T09:53:34.537Z,9.2
2019-03-31T09:54:33.902Z,9.1
2019-03-31T09:56:32.160Z,9.2
2019-03-31T09:57:31.046Z,9.2
2019-03-31T09:58:01.226Z,9.2
2019-03-31T09:59:29.192Z,9.2
2019-03-31T10:01:27.360Z,9.3
2019-03-31T10:02:26.736Z,9.3
2019-03-31T10:03:26.022Z,9.3
2019-03-31T10:05:24.181Z,9.3
2019-03-31T10:06:31.867Z,9.3
2019-03-31T10:07:25.090Z,9.3
2019-03-31T10:07:52.675Z,9.3
2019-03-31T10:08:23.728Z,9.3
2019-03-31T10:08:53.948Z,9.3
2019-03-31T10:12:18.172Z,9.2
2019-03-31T10:14:16.432Z,9.3
2019-03-31T10:15:15.303Z,9.2
2019-03-31T10:16:14.586Z,9.2
2019-03-31T10:19:12.231Z,9.2
2019-03-31T10:19:42.838Z,9.2
2019-03-31T10:22:09.290Z,9.2
2019-03-31T10:25:06.846Z,9.1
2019-03-31T10:26:06.194Z,9.1
2019-03-31T10:27:05.151Z,9.1
2019-03-31T10:27:35.234Z,9.1
2019-03-31T10:28:05.866Z,9.2
2019-03-31T10:28:36.459Z,9.2
2019-03-31T10:29:07.145Z,9.3
2019-03-31T10:29:37.920Z,9.3
2019-03-31T10:30:08.107Z,9.3
2019-03-31T10:30:38.712Z,9.3
2019-03-31T10:32:00.643Z,9.3
2019-03-31T10:33:00.009Z,9.3
2019-03-31T10:33:58.778Z,9.3
2019-03-31T10:34:58.053Z,9.3
2019-03-31T10:35:57.428Z,9.2
2019-03-31T10:36:56.707Z,9.2
2019-03-31T10:37:27.392Z,9.2
2019-03-31T10:37:57.986Z,9.2
2019-03-31T10:38:28.570Z,9.2
2019-03-31T10:38:59.254Z,9.3
2019-03-31T10:39:29.845Z,9.3
2019-03-31T10:40:00.729Z,9.3
2019-03-31T10:40:30.836Z,9.3
2019-03-31T10:41:01.428Z,9.4
2019-03-31T10:41:32.347Z,9.4
2019-03-31T10:42:51.163Z,9.3
2019-03-31T10:43:50.538Z,9.4
2019-03-31T10:44:49.308Z,9.4
2019-03-31T10:45:48.594Z,9.4
2019-03-31T10:46:47.948Z,9.4
2019-03-31T10:47:18.632Z,9.4
2019-03-31T10:47:49.325Z,9.4
2019-03-31T10:48:22.511Z,9.4
2019-03-31T10:48:50.201Z,9.2
2019-03-31T10:49:20.593Z,9.2
2019-03-31T10:49:51.177Z,9.1
2019-03-31T10:50:21.758Z,9.1
2019-03-31T10:50:52.437Z,9.1
2019-03-31T10:51:22.925Z,9.1
2019-03-31T10:52:42.425Z,9.1
2019-03-31T10:53:41.614Z,9
2019-03-31T10:54:40.890Z,9.1
2019-03-31T10:55:40.268Z,9.1
2019-03-31T10:56:39.042Z,9.1
2019-03-31T10:57:38.411Z,9.1
2019-03-31T10:58:08.918Z,9.1
2019-03-31T10:58:39.505Z,9
2019-03-31T10:59:10.206Z,9
2019-03-31T11:00:35.656Z,8.8
2019-03-31T11:01:06.263Z,8.8
2019-03-31T11:02:33.814Z,8.8
2019-03-31T11:03:34.189Z,8.9
2019-03-31T11:04:31.956Z,8.7
2019-03-31T11:05:31.150Z,8.6
2019-03-31T11:07:29.867Z,8.7
2019-03-31T11:08:28.644Z,8.8
2019-03-31T11:08:59.241Z,8.8
2019-03-31T11:09:29.930Z,8.8
2019-03-31T11:10:00.618Z,8.8
2019-03-31T11:10:31.013Z,8.7
2019-03-31T11:11:01.694Z,8.7
2019-03-31T11:12:25.221Z,8.7
2019-03-31T11:13:24.591Z,8.7
2019-03-31T11:15:22.865Z,8.8
2019-03-31T11:16:21.546Z,8.9
2019-03-31T11:17:20.920Z,8.9
2019-03-31T11:18:20.292Z,8.9
2019-03-31T11:19:19.170Z,8.8
2019-03-31T11:19:49.935Z,8.8
2019-03-31T11:20:20.121Z,8.8
2019-03-31T11:20:50.616Z,8.8
2019-03-31T11:21:21.369Z,8.7
2019-03-31T11:21:51.454Z,8.7
2019-03-31T11:23:15.907Z,8.6
2019-03-31T11:25:30.291Z,8.7
2019-03-31T11:26:13.060Z,8.7
2019-03-31T11:28:11.336Z,8.7
2019-03-31T11:29:10.721Z,8.6
2019-03-31T11:30:09.389Z,8.6
2019-03-31T11:30:40.144Z,8.6
2019-03-31T11:31:10.365Z,8.6
2019-03-31T11:31:40.550Z,8.6
2019-03-31T11:32:11.141Z,8.6
2019-03-31T11:33:08.991Z,8.6
2019-03-31T11:34:06.258Z,8.6
2019-03-31T11:36:04.529Z,8.5
2019-03-31T11:37:14.985Z,8.6
2019-03-31T11:37:34.008Z,8.6
2019-03-31T11:38:04.688Z,8.6
2019-03-31T11:39:02.070Z,8.6
2019-03-31T11:40:01.123Z,8.5
2019-03-31T11:40:59.998Z,8.6
2019-03-31T11:41:30.696Z,8.6
2019-03-31T11:42:01.296Z,8.6
2019-03-31T11:43:57.542Z,8.6
2019-03-31T11:45:55.740Z,8.6
2019-03-31T11:47:53.962Z,8.7
2019-03-31T11:48:53.144Z,8.8
2019-03-31T11:49:52.014Z,8.8
2019-03-31T11:50:51.387Z,8.8
2019-03-31T11:51:50.252Z,8.9
2019-03-31T11:52:49.635Z,8.9
2019-03-31T11:53:48.516Z,8.9
2019-03-31T11:54:47.712Z,8.9
2019-03-31T11:55:46.908Z,8.9
2019-03-31T11:57:44.982Z,8.8
2019-03-31T11:58:44.395Z,8.8
2019-03-31T11:59:43.285Z,8.8
2019-03-31T12:00:42.662Z,8.8
2019-03-31T12:01:41.621Z,8.8
2019-03-31T12:02:41.000Z,8.8
2019-03-31T12:05:38.041Z,8.9
2019-03-31T12:07:48.560Z,9
2019-03-31T12:08:07.086Z,9
2019-03-31T12:08:37.574Z,9
2019-03-31T12:09:34.934Z,9.1
2019-03-31T12:10:33.812Z,9.2
2019-03-31T12:11:33.197Z,9.2
2019-03-31T12:12:32.073Z,9.2
2019-03-31T12:13:31.346Z,9.2
2019-03-31T12:14:30.122Z,9.2
2019-03-31T12:15:29.503Z,9.2
2019-03-31T12:16:28.375Z,9.2
2019-03-31T12:16:59.067Z,9.2
2019-03-31T12:17:29.650Z,9.1
2019-03-31T12:18:00.189Z,9.1
2019-03-31T12:19:26.251Z,9.2
2019-03-31T12:20:25.118Z,9.2
2019-03-31T12:21:24.371Z,9.2
2019-03-31T12:23:22.653Z,9.3
2019-03-31T12:25:21.321Z,9.4
2019-03-31T12:26:19.761Z,9.4
2019-03-31T12:26:49.953Z,9.4
2019-03-31T12:27:20.442Z,9.4
2019-03-31T12:27:51.138Z,9.4
2019-03-31T12:28:21.824Z,9.5
2019-03-31T12:28:52.516Z,9.5
2019-03-31T12:30:16.458Z,9.4
2019-03-31T12:31:15.335Z,9.5
2019-03-31T12:32:14.616Z,9.6
2019-03-31T12:33:13.998Z,9.6
2019-03-31T12:34:12.774Z,9.6
2019-03-31T12:35:12.161Z,9.6
2019-03-31T12:37:10.415Z,9.7
2019-03-31T12:37:44.548Z,9.7
2019-03-31T12:38:11.733Z,9.7
2019-03-31T12:38:41.970Z,9.7
2019-03-31T12:39:11.939Z,9.8
2019-03-31T12:39:42.755Z,9.8
2019-03-31T12:41:06.848Z,10
2019-03-31T12:42:06.131Z,10
2019-03-31T12:43:05.094Z,10.1
2019-03-31T12:44:04.394Z,10.2
2019-03-31T12:45:03.100Z,10.1
2019-03-31T12:46:02.483Z,10.1
2019-03-31T12:46:32.577Z,10.1
2019-03-31T12:47:03.180Z,10.1
2019-03-31T12:47:33.371Z,10.1
2019-03-31T12:48:04.077Z,10.1
2019-03-31T12:48:34.274Z,10.1
2019-03-31T12:49:04.962Z,10.1
2019-03-31T12:49:35.716Z,10.1
2019-03-31T12:50:06.296Z,10.2
2019-03-31T12:50:36.992Z,10.2
2019-03-31T12:51:57.427Z,10.3
2019-03-31T12:52:56.613Z,10.4
2019-03-31T12:53:55.516Z,10.4
2019-03-31T12:54:54.946Z,10.4
2019-03-31T12:56:01.765Z,10.4
2019-03-31T12:56:24.416Z,10.4
2019-03-31T12:56:54.692Z,10.4